sensor_id;sensor_type;location;lat;lon;timestamp;temperature;humidity
71523;HTU21D;59343;51.102;5.884;2022-09-13T00:00:51;20.57;69.14
71523;HTU21D;59343;51.102;5.884;2022-09-13T00:03:19;20.57;69.13
71523;HTU21D;59343;51.102;5.884;2022-09-13T00:05:46;20.58;69.30
71523;HTU21D;59343;51.102;5.884;2022-09-13T00:08:13;20.60;68.99
71523;HTU21D;59343;51.102;5.884;2022-09-13T00:10:40;20.60;68.94
71523;HTU21D;59343;51.102;5.884;2022-09-13T00:13:07;20.61;69.23
71523;HTU21D;59343;51.102;5.884;2022-09-13T00:15:35;20.60;69.03
71523;HTU21D;59343;51.102;5.884;2022-09-13T00:18:01;20.63;68.72
71523;HTU21D;59343;51.102;5.884;2022-09-13T00:20:27;20.62;68.72
71523;HTU21D;59343;51.102;5.884;2022-09-13T00:22:54;20.62;68.84
71523;HTU21D;59343;51.102;5.884;2022-09-13T00:25:20;20.63;68.87
71523;HTU21D;59343;51.102;5.884;2022-09-13T00:27:46;20.61;68.77
71523;HTU21D;59343;51.102;5.884;2022-09-13T00:30:12;20.61;68.58
71523;HTU21D;59343;51.102;5.884;2022-09-13T00:32:38;20.62;68.63
71523;HTU21D;59343;51.102;5.884;2022-09-13T00:35:05;20.59;68.76
71523;HTU21D;59343;51.102;5.884;2022-09-13T00:37:31;20.57;68.62
71523;HTU21D;59343;51.102;5.884;2022-09-13T00:39:59;20.58;68.58
71523;HTU21D;59343;51.102;5.884;2022-09-13T00:42:27;20.57;68.59
71523;HTU21D;59343;51.102;5.884;2022-09-13T00:47:42;20.58;68.64
71523;HTU21D;59343;51.102;5.884;2022-09-13T00:50:32;20.58;68.66
71523;HTU21D;59343;51.102;5.884;2022-09-13T00:53:20;20.56;68.63
71523;HTU21D;59343;51.102;5.884;2022-09-13T00:56:08;20.55;68.46
71523;HTU21D;59343;51.102;5.884;2022-09-13T00:58:45;20.51;68.83
71523;HTU21D;59343;51.102;5.884;2022-09-13T01:01:15;20.47;69.08
71523;HTU21D;59343;51.102;5.884;2022-09-13T01:03:44;20.44;69.10
71523;HTU21D;59343;51.102;5.884;2022-09-13T01:06:25;20.41;69.20
71523;HTU21D;59343;51.102;5.884;2022-09-13T01:09:00;20.41;69.05
71523;HTU21D;59343;51.102;5.884;2022-09-13T01:11:48;20.40;69.36
71523;HTU21D;59343;51.102;5.884;2022-09-13T01:14:19;20.36;69.58
71523;HTU21D;59343;51.102;5.884;2022-09-13T01:16:46;20.36;69.23
71523;HTU21D;59343;51.102;5.884;2022-09-13T01:19:12;20.37;68.96
71523;HTU21D;59343;51.102;5.884;2022-09-13T01:27:36;20.33;69.16
71523;HTU21D;59343;51.102;5.884;2022-09-13T01:46:53;20.32;68.61
71523;HTU21D;59343;51.102;5.884;2022-09-13T01:52:18;20.33;68.90
71523;HTU21D;59343;51.102;5.884;2022-09-13T01:55:13;20.34;68.82
71523;HTU21D;59343;51.102;5.884;2022-09-13T02:00:17;20.36;68.76
71523;HTU21D;59343;51.102;5.884;2022-09-13T02:05:57;20.34;68.94
71523;HTU21D;59343;51.102;5.884;2022-09-13T02:08:45;20.36;68.87
71523;HTU21D;59343;51.102;5.884;2022-09-13T02:11:15;20.36;68.81
71523;HTU21D;59343;51.102;5.884;2022-09-13T02:13:48;20.34;69.28
71523;HTU21D;59343;51.102;5.884;2022-09-13T02:16:40;20.39;68.64
71523;HTU21D;59343;51.102;5.884;2022-09-13T02:19:20;20.35;68.97
71523;HTU21D;59343;51.102;5.884;2022-09-13T02:21:55;20.33;68.75
71523;HTU21D;59343;51.102;5.884;2022-09-13T02:24:31;20.32;68.85
71523;HTU21D;59343;51.102;5.884;2022-09-13T02:27:04;20.33;68.65
71523;HTU21D;59343;51.102;5.884;2022-09-13T02:29:38;20.33;68.71
71523;HTU21D;59343;51.102;5.884;2022-09-13T02:32:20;20.31;68.94
71523;HTU21D;59343;51.102;5.884;2022-09-13T02:34:54;20.32;68.67
71523;HTU21D;59343;51.102;5.884;2022-09-13T02:37:23;20.34;68.58
71523;HTU21D;59343;51.102;5.884;2022-09-13T02:39:58;20.34;68.70
71523;HTU21D;59343;51.102;5.884;2022-09-13T02:42:43;20.34;68.66
71523;HTU21D;59343;51.102;5.884;2022-09-13T02:45:13;20.34;68.71
71523;HTU21D;59343;51.102;5.884;2022-09-13T02:47:56;20.34;69.68
71523;HTU21D;59343;51.102;5.884;2022-09-13T02:51:05;20.32;70.46
71523;HTU21D;59343;51.102;5.884;2022-09-13T02:56:42;20.27;70.83
71523;HTU21D;59343;51.102;5.884;2022-09-13T02:59:21;20.27;71.06
71523;HTU21D;59343;51.102;5.884;2022-09-13T03:01:58;20.29;70.32
71523;HTU21D;59343;51.102;5.884;2022-09-13T03:04:26;20.31;70.03
71523;HTU21D;59343;51.102;5.884;2022-09-13T03:06:53;20.30;69.87
71523;HTU21D;59343;51.102;5.884;2022-09-13T03:09:20;20.30;70.13
71523;HTU21D;59343;51.102;5.884;2022-09-13T03:14:33;20.24;70.44
71523;HTU21D;59343;51.102;5.884;2022-09-13T03:22:41;20.19;71.30
71523;HTU21D;59343;51.102;5.884;2022-09-13T03:30:33;20.16;72.01
71523;HTU21D;59343;51.102;5.884;2022-09-13T03:33:14;20.15;72.08
71523;HTU21D;59343;51.102;5.884;2022-09-13T03:36:04;20.17;72.07
71523;HTU21D;59343;51.102;5.884;2022-09-13T03:38:43;20.16;72.32
71523;HTU21D;59343;51.102;5.884;2022-09-13T03:41:17;20.15;72.36
71523;HTU21D;59343;51.102;5.884;2022-09-13T03:43:56;20.14;72.30
71523;HTU21D;59343;51.102;5.884;2022-09-13T03:46:28;20.14;72.35
71523;HTU21D;59343;51.102;5.884;2022-09-13T03:49:01;20.16;72.22
71523;HTU21D;59343;51.102;5.884;2022-09-13T03:51:27;20.16;71.64
71523;HTU21D;59343;51.102;5.884;2022-09-13T03:54:02;20.16;71.10
71523;HTU21D;59343;51.102;5.884;2022-09-13T03:56:29;20.17;70.76
71523;HTU21D;59343;51.102;5.884;2022-09-13T03:58:55;20.16;70.79
71523;HTU21D;59343;51.102;5.884;2022-09-13T04:01:23;20.17;70.81
71523;HTU21D;59343;51.102;5.884;2022-09-13T04:03:49;20.17;71.01
71523;HTU21D;59343;51.102;5.884;2022-09-13T04:06:16;20.18;71.34
71523;HTU21D;59343;51.102;5.884;2022-09-13T04:08:42;20.19;70.59
71523;HTU21D;59343;51.102;5.884;2022-09-13T04:11:09;20.19;70.19
71523;HTU21D;59343;51.102;5.884;2022-09-13T04:13:36;20.20;69.72
71523;HTU21D;59343;51.102;5.884;2022-09-13T04:16:05;20.19;69.33
71523;HTU21D;59343;51.102;5.884;2022-09-13T04:18:32;20.19;69.07
71523;HTU21D;59343;51.102;5.884;2022-09-13T04:21:00;20.18;68.93
71523;HTU21D;59343;51.102;5.884;2022-09-13T04:23:28;20.16;68.94
71523;HTU21D;59343;51.102;5.884;2022-09-13T04:25:54;20.17;69.00
71523;HTU21D;59343;51.102;5.884;2022-09-13T04:28:26;20.15;69.03
71523;HTU21D;59343;51.102;5.884;2022-09-13T04:30:52;20.14;69.06
71523;HTU21D;59343;51.102;5.884;2022-09-13T04:33:18;20.13;68.88
71523;HTU21D;59343;51.102;5.884;2022-09-13T04:35:44;20.13;68.81
71523;HTU21D;59343;51.102;5.884;2022-09-13T04:38:10;20.13;68.73
71523;HTU21D;59343;51.102;5.884;2022-09-13T04:40:36;20.14;68.89
71523;HTU21D;59343;51.102;5.884;2022-09-13T04:43:03;20.15;68.83
71523;HTU21D;59343;51.102;5.884;2022-09-13T04:45:29;20.15;68.66
71523;HTU21D;59343;51.102;5.884;2022-09-13T04:47:56;20.17;68.60
71523;HTU21D;59343;51.102;5.884;2022-09-13T04:50:23;20.17;68.44
71523;HTU21D;59343;51.102;5.884;2022-09-13T04:52:50;20.19;68.58
71523;HTU21D;59343;51.102;5.884;2022-09-13T04:55:18;20.21;68.40
71523;HTU21D;59343;51.102;5.884;2022-09-13T04:57:44;20.21;68.77
71523;HTU21D;59343;51.102;5.884;2022-09-13T05:00:11;20.22;68.80
71523;HTU21D;59343;51.102;5.884;2022-09-13T05:02:37;20.21;68.37
71523;HTU21D;59343;51.102;5.884;2022-09-13T05:05:03;20.20;68.31
71523;HTU21D;59343;51.102;5.884;2022-09-13T05:07:29;20.20;68.45
71523;HTU21D;59343;51.102;5.884;2022-09-13T05:09:55;20.19;68.34
71523;HTU21D;59343;51.102;5.884;2022-09-13T05:12:21;20.17;68.01
71523;HTU21D;59343;51.102;5.884;2022-09-13T05:14:47;20.18;68.10
71523;HTU21D;59343;51.102;5.884;2022-09-13T05:17:13;20.17;68.19
71523;HTU21D;59343;51.102;5.884;2022-09-13T05:19:39;20.18;68.15
71523;HTU21D;59343;51.102;5.884;2022-09-13T05:22:05;20.19;68.07
71523;HTU21D;59343;51.102;5.884;2022-09-13T05:24:31;20.21;67.88
71523;HTU21D;59343;51.102;5.884;2022-09-13T05:26:57;20.22;67.78
71523;HTU21D;59343;51.102;5.884;2022-09-13T05:29:23;20.22;67.84
71523;HTU21D;59343;51.102;5.884;2022-09-13T05:31:49;20.21;68.03
71523;HTU21D;59343;51.102;5.884;2022-09-13T05:34:16;20.20;68.54
71523;HTU21D;59343;51.102;5.884;2022-09-13T05:36:43;20.20;68.88
71523;HTU21D;59343;51.102;5.884;2022-09-13T05:39:14;20.20;68.81
71523;HTU21D;59343;51.102;5.884;2022-09-13T05:41:43;20.24;68.30
71523;HTU21D;59343;51.102;5.884;2022-09-13T05:44:09;20.26;68.23
71523;HTU21D;59343;51.102;5.884;2022-09-13T05:46:35;20.29;68.07
71523;HTU21D;59343;51.102;5.884;2022-09-13T05:49:01;20.28;68.20
71523;HTU21D;59343;51.102;5.884;2022-09-13T05:51:27;20.31;68.14
71523;HTU21D;59343;51.102;5.884;2022-09-13T05:53:54;20.33;68.05
71523;HTU21D;59343;51.102;5.884;2022-09-13T05:56:24;20.33;67.90
71523;HTU21D;59343;51.102;5.884;2022-09-13T05:58:51;20.35;68.01
71523;HTU21D;59343;51.102;5.884;2022-09-13T06:01:19;20.36;67.98
71523;HTU21D;59343;51.102;5.884;2022-09-13T06:03:47;20.35;68.09
71523;HTU21D;59343;51.102;5.884;2022-09-13T06:06:14;20.35;68.33
71523;HTU21D;59343;51.102;5.884;2022-09-13T06:08:41;20.37;68.46
71523;HTU21D;59343;51.102;5.884;2022-09-13T06:11:10;20.40;68.30
71523;HTU21D;59343;51.102;5.884;2022-09-13T06:13:37;20.40;68.31
71523;HTU21D;59343;51.102;5.884;2022-09-13T06:16:06;20.40;68.31
71523;HTU21D;59343;51.102;5.884;2022-09-13T06:18:33;20.42;68.30
71523;HTU21D;59343;51.102;5.884;2022-09-13T06:21:09;20.43;68.40
71523;HTU21D;59343;51.102;5.884;2022-09-13T06:23:36;20.46;68.26
71523;HTU21D;59343;51.102;5.884;2022-09-13T06:26:07;20.47;68.23
71523;HTU21D;59343;51.102;5.884;2022-09-13T06:28:37;20.47;68.16
71523;HTU21D;59343;51.102;5.884;2022-09-13T06:31:06;20.50;68.11
71523;HTU21D;59343;51.102;5.884;2022-09-13T06:33:33;20.51;68.17
71523;HTU21D;59343;51.102;5.884;2022-09-13T06:36:00;20.50;68.36
71523;HTU21D;59343;51.102;5.884;2022-09-13T06:38:27;20.53;68.67
71523;HTU21D;59343;51.102;5.884;2022-09-13T06:41:07;20.55;68.87
71523;HTU21D;59343;51.102;5.884;2022-09-13T06:43:34;20.59;68.66
71523;HTU21D;59343;51.102;5.884;2022-09-13T06:46:09;20.62;68.45
71523;HTU21D;59343;51.102;5.884;2022-09-13T06:48:40;20.65;68.80
71523;HTU21D;59343;51.102;5.884;2022-09-13T06:51:10;20.69;68.59
71523;HTU21D;59343;51.102;5.884;2022-09-13T06:53:37;20.74;68.33
71523;HTU21D;59343;51.102;5.884;2022-09-13T06:56:27;20.76;67.91
71523;HTU21D;59343;51.102;5.884;2022-09-13T06:58:56;20.77;67.78
71523;HTU21D;59343;51.102;5.884;2022-09-13T07:01:28;20.78;67.91
71523;HTU21D;59343;51.102;5.884;2022-09-13T07:04:07;20.78;67.84
71523;HTU21D;59343;51.102;5.884;2022-09-13T07:06:39;20.80;67.92
71523;HTU21D;59343;51.102;5.884;2022-09-13T07:09:09;20.83;67.62
71523;HTU21D;59343;51.102;5.884;2022-09-13T07:11:37;20.83;67.68
71523;HTU21D;59343;51.102;5.884;2022-09-13T07:14:05;20.84;67.62
71523;HTU21D;59343;51.102;5.884;2022-09-13T07:16:36;20.85;67.56
71523;HTU21D;59343;51.102;5.884;2022-09-13T07:19:05;20.84;67.62
71523;HTU21D;59343;51.102;5.884;2022-09-13T07:21:33;20.86;67.51
71523;HTU21D;59343;51.102;5.884;2022-09-13T07:24:00;20.90;67.55
71523;HTU21D;59343;51.102;5.884;2022-09-13T07:26:26;20.93;67.45
71523;HTU21D;59343;51.102;5.884;2022-09-13T07:28:55;20.96;67.20
71523;HTU21D;59343;51.102;5.884;2022-09-13T07:31:28;21.00;67.20
71523;HTU21D;59343;51.102;5.884;2022-09-13T07:33:57;21.06;67.34
71523;HTU21D;59343;51.102;5.884;2022-09-13T07:36:23;21.11;67.30
71523;HTU21D;59343;51.102;5.884;2022-09-13T07:38:49;21.18;67.32
71523;HTU21D;59343;51.102;5.884;2022-09-13T07:41:18;21.21;66.98
71523;HTU21D;59343;51.102;5.884;2022-09-13T07:43:45;21.28;67.04
71523;HTU21D;59343;51.102;5.884;2022-09-13T07:46:14;21.32;66.67
71523;HTU21D;59343;51.102;5.884;2022-09-13T07:48:42;21.37;66.60
71523;HTU21D;59343;51.102;5.884;2022-09-13T07:51:17;21.40;66.58
71523;HTU21D;59343;51.102;5.884;2022-09-13T07:53:47;21.44;66.61
71523;HTU21D;59343;51.102;5.884;2022-09-13T07:56:17;21.45;66.87
71523;HTU21D;59343;51.102;5.884;2022-09-13T07:58:45;21.49;66.49
71523;HTU21D;59343;51.102;5.884;2022-09-13T08:01:12;21.50;66.33
71523;HTU21D;59343;51.102;5.884;2022-09-13T08:03:39;21.54;66.43
71523;HTU21D;59343;51.102;5.884;2022-09-13T08:06:06;21.62;66.58
71523;HTU21D;59343;51.102;5.884;2022-09-13T08:08:33;21.69;66.45
71523;HTU21D;59343;51.102;5.884;2022-09-13T08:11:00;21.75;66.60
71523;HTU21D;59343;51.102;5.884;2022-09-13T08:13:27;21.83;66.40
71523;HTU21D;59343;51.102;5.884;2022-09-13T08:15:54;21.93;66.17
71523;HTU21D;59343;51.102;5.884;2022-09-13T08:18:21;22.02;65.78
71523;HTU21D;59343;51.102;5.884;2022-09-13T08:20:47;22.06;65.80
71523;HTU21D;59343;51.102;5.884;2022-09-13T08:23:13;22.11;65.56
71523;HTU21D;59343;51.102;5.884;2022-09-13T08:25:40;22.14;65.04
71523;HTU21D;59343;51.102;5.884;2022-09-13T08:28:14;22.18;64.96
71523;HTU21D;59343;51.102;5.884;2022-09-13T08:30:41;22.23;65.12
71523;HTU21D;59343;51.102;5.884;2022-09-13T08:33:09;22.28;65.06
71523;HTU21D;59343;51.102;5.884;2022-09-13T08:35:37;22.32;64.97
71523;HTU21D;59343;51.102;5.884;2022-09-13T08:38:03;22.31;64.78
71523;HTU21D;59343;51.102;5.884;2022-09-13T08:40:48;22.29;64.92
71523;HTU21D;59343;51.102;5.884;2022-09-13T08:43:27;22.31;65.08
71523;HTU21D;59343;51.102;5.884;2022-09-13T08:48:51;22.35;64.87
71523;HTU21D;59343;51.102;5.884;2022-09-13T08:51:34;22.40;64.95
71523;HTU21D;59343;51.102;5.884;2022-09-13T08:54:02;22.39;64.92
71523;HTU21D;59343;51.102;5.884;2022-09-13T08:56:40;22.35;64.98
71523;HTU21D;59343;51.102;5.884;2022-09-13T09:07:12;22.40;65.31
71523;HTU21D;59343;51.102;5.884;2022-09-13T09:09:52;22.39;65.04
71523;HTU21D;59343;51.102;5.884;2022-09-13T09:15:19;22.55;65.09
71523;HTU21D;59343;51.102;5.884;2022-09-13T09:25:40;22.93;64.56
71523;HTU21D;59343;51.102;5.884;2022-09-13T09:28:11;22.99;63.99
71523;HTU21D;59343;51.102;5.884;2022-09-13T09:33:34;23.17;63.80
71523;HTU21D;59343;51.102;5.884;2022-09-13T09:38:50;23.35;63.06
71523;HTU21D;59343;51.102;5.884;2022-09-13T09:41:29;23.44;63.22
71523;HTU21D;59343;51.102;5.884;2022-09-13T09:46:30;23.56;63.00
71523;HTU21D;59343;51.102;5.884;2022-09-13T09:49:15;23.59;62.97
71523;HTU21D;59343;51.102;5.884;2022-09-13T09:52:05;23.61;63.06
71523;HTU21D;59343;51.102;5.884;2022-09-13T09:54:33;23.65;62.71
71523;HTU21D;59343;51.102;5.884;2022-09-13T09:57:00;23.66;63.30
71523;HTU21D;59343;51.102;5.884;2022-09-13T09:59:33;23.69;62.94
71523;HTU21D;59343;51.102;5.884;2022-09-13T10:02:10;23.72;62.43
71523;HTU21D;59343;51.102;5.884;2022-09-13T10:04:39;23.70;62.08
71523;HTU21D;59343;51.102;5.884;2022-09-13T10:07:50;23.72;62.07
71523;HTU21D;59343;51.102;5.884;2022-09-13T10:10:20;23.72;61.97
71523;HTU21D;59343;51.102;5.884;2022-09-13T10:12:53;23.77;61.47
71523;HTU21D;59343;51.102;5.884;2022-09-13T10:15:25;23.81;61.83
71523;HTU21D;59343;51.102;5.884;2022-09-13T10:20:32;23.95;61.45
71523;HTU21D;59343;51.102;5.884;2022-09-13T10:23:16;23.99;60.89
71523;HTU21D;59343;51.102;5.884;2022-09-13T10:31:19;24.08;60.87
71523;HTU21D;59343;51.102;5.884;2022-09-13T10:36:21;24.20;60.22
71523;HTU21D;59343;51.102;5.884;2022-09-13T10:39:16;24.23;59.80
71523;HTU21D;59343;51.102;5.884;2022-09-13T10:44:52;24.30;59.43
71523;HTU21D;59343;51.102;5.884;2022-09-13T10:47:24;24.28;58.91
71523;HTU21D;59343;51.102;5.884;2022-09-13T10:49:53;24.29;59.19
71523;HTU21D;59343;51.102;5.884;2022-09-13T10:52:33;24.41;59.28
71523;HTU21D;59343;51.102;5.884;2022-09-13T10:57:47;24.61;59.33
71523;HTU21D;59343;51.102;5.884;2022-09-13T11:00:23;24.73;59.30
71523;HTU21D;59343;51.102;5.884;2022-09-13T11:06:10;24.84;57.77
71523;HTU21D;59343;51.102;5.884;2022-09-13T11:08:46;24.88;57.69
71523;HTU21D;59343;51.102;5.884;2022-09-13T11:24:50;25.01;56.35
71523;HTU21D;59343;51.102;5.884;2022-09-13T11:30:14;25.20;56.76
71523;HTU21D;59343;51.102;5.884;2022-09-13T11:41:16;25.37;56.07
71523;HTU21D;59343;51.102;5.884;2022-09-13T11:47:29;25.59;56.63
71523;HTU21D;59343;51.102;5.884;2022-09-13T11:52:33;25.79;56.73
71523;HTU21D;59343;51.102;5.884;2022-09-13T11:57:45;25.88;55.73
71523;HTU21D;59343;51.102;5.884;2022-09-13T12:05:27;25.88;54.96
71523;HTU21D;59343;51.102;5.884;2022-09-13T12:10:55;25.92;54.75
71523;HTU21D;59343;51.102;5.884;2022-09-13T12:13:36;25.98;54.21
71523;HTU21D;59343;51.102;5.884;2022-09-13T12:16:10;26.04;54.20
71523;HTU21D;59343;51.102;5.884;2022-09-13T12:18:50;26.09;53.49
71523;HTU21D;59343;51.102;5.884;2022-09-13T12:21:26;26.07;53.57
71523;HTU21D;59343;51.102;5.884;2022-09-13T12:24:00;26.11;53.72
71523;HTU21D;59343;51.102;5.884;2022-09-13T12:26:37;26.15;53.63
71523;HTU21D;59343;51.102;5.884;2022-09-13T12:29:24;26.07;53.29
71523;HTU21D;59343;51.102;5.884;2022-09-13T12:31:58;26.02;53.41
71523;HTU21D;59343;51.102;5.884;2022-09-13T12:52:09;25.94;53.37
71523;HTU21D;59343;51.102;5.884;2022-09-13T12:57:25;25.88;53.42
71523;HTU21D;59343;51.102;5.884;2022-09-13T13:05:32;25.94;53.94
71523;HTU21D;59343;51.102;5.884;2022-09-13T13:08:05;25.96;54.06
71523;HTU21D;59343;51.102;5.884;2022-09-13T13:10:37;26.02;54.26
71523;HTU21D;59343;51.102;5.884;2022-09-13T13:16:05;26.13;54.11
71523;HTU21D;59343;51.102;5.884;2022-09-13T13:23:38;26.48;53.54
71523;HTU21D;59343;51.102;5.884;2022-09-13T13:34:00;26.76;53.56
71523;HTU21D;59343;51.102;5.884;2022-09-13T13:36:29;26.83;53.51
71523;HTU21D;59343;51.102;5.884;2022-09-13T13:39:02;26.84;53.21
71523;HTU21D;59343;51.102;5.884;2022-09-13T13:46:46;26.84;53.14
71523;HTU21D;59343;51.102;5.884;2022-09-13T13:55:01;26.63;53.46
71523;HTU21D;59343;51.102;5.884;2022-09-13T13:58:09;26.61;53.39
71523;HTU21D;59343;51.102;5.884;2022-09-13T14:00:23;26.64;53.59
71523;HTU21D;59343;51.102;5.884;2022-09-13T14:13:40;26.70;53.62
71523;HTU21D;59343;51.102;5.884;2022-09-13T14:21:25;26.64;53.51
71523;HTU21D;59343;51.102;5.884;2022-09-13T14:24:27;26.63;53.75
71523;HTU21D;59343;51.102;5.884;2022-09-13T14:26:58;26.54;53.69
71523;HTU21D;59343;51.102;5.884;2022-09-13T14:29:24;26.46;53.77
71523;HTU21D;59343;51.102;5.884;2022-09-13T14:31:53;26.46;54.04
71523;HTU21D;59343;51.102;5.884;2022-09-13T14:34:22;26.50;54.04
71523;HTU21D;59343;51.102;5.884;2022-09-13T14:36:55;26.51;53.98
71523;HTU21D;59343;51.102;5.884;2022-09-13T14:39:22;26.51;54.23
71523;HTU21D;59343;51.102;5.884;2022-09-13T14:41:58;26.51;54.33
71523;HTU21D;59343;51.102;5.884;2022-09-13T14:44:26;26.51;54.47
71523;HTU21D;59343;51.102;5.884;2022-09-13T14:47:20;26.50;54.72
71523;HTU21D;59343;51.102;5.884;2022-09-13T14:49:53;26.51;55.02
71523;HTU21D;59343;51.102;5.884;2022-09-13T14:52:31;26.47;55.61
71523;HTU21D;59343;51.102;5.884;2022-09-13T14:55:04;26.40;56.19
71523;HTU21D;59343;51.102;5.884;2022-09-13T14:57:44;26.30;56.84
71523;HTU21D;59343;51.102;5.884;2022-09-13T15:00:22;26.17;56.95
71523;HTU21D;59343;51.102;5.884;2022-09-13T15:03:00;26.09;57.47
71523;HTU21D;59343;51.102;5.884;2022-09-13T15:05:35;26.04;57.69
71523;HTU21D;59343;51.102;5.884;2022-09-13T15:11:00;25.98;57.87
71523;HTU21D;59343;51.102;5.884;2022-09-13T15:13:27;25.98;58.29
71523;HTU21D;59343;51.102;5.884;2022-09-13T15:15:53;25.98;58.97
71523;HTU21D;59343;51.102;5.884;2022-09-13T15:25:53;25.76;62.29
71523;HTU21D;59343;51.102;5.884;2022-09-13T15:28:26;25.71;63.45
71523;HTU21D;59343;51.102;5.884;2022-09-13T15:30:55;25.63;64.05
71523;HTU21D;59343;51.102;5.884;2022-09-13T15:33:23;25.59;63.82
71523;HTU21D;59343;51.102;5.884;2022-09-13T15:35:50;25.57;63.80
71523;HTU21D;59343;51.102;5.884;2022-09-13T15:38:29;25.52;63.92
71523;HTU21D;59343;51.102;5.884;2022-09-13T15:43:28;25.50;63.49
71523;HTU21D;59343;51.102;5.884;2022-09-13T15:45:56;25.50;63.61
71523;HTU21D;59343;51.102;5.884;2022-09-13T15:48:33;25.49;63.85
71523;HTU21D;59343;51.102;5.884;2022-09-13T15:53:36;25.45;64.79
71523;HTU21D;59343;51.102;5.884;2022-09-13T15:56:04;25.42;64.49
71523;HTU21D;59343;51.102;5.884;2022-09-13T15:58:31;25.36;65.05
71523;HTU21D;59343;51.102;5.884;2022-09-13T16:00:57;25.34;66.43
71523;HTU21D;59343;51.102;5.884;2022-09-13T16:03:23;25.31;66.85
71523;HTU21D;59343;51.102;5.884;2022-09-13T16:05:49;25.29;67.02
71523;HTU21D;59343;51.102;5.884;2022-09-13T16:08:15;25.27;67.27
71523;HTU21D;59343;51.102;5.884;2022-09-13T16:10:41;25.27;67.25
71523;HTU21D;59343;51.102;5.884;2022-09-13T16:13:07;25.25;66.90
71523;HTU21D;59343;51.102;5.884;2022-09-13T16:15:33;25.22;66.63
71523;HTU21D;59343;51.102;5.884;2022-09-13T16:18:00;25.25;66.58
71523;HTU21D;59343;51.102;5.884;2022-09-13T16:20:27;25.19;66.76
71523;HTU21D;59343;51.102;5.884;2022-09-13T16:22:53;25.18;66.72
71523;HTU21D;59343;51.102;5.884;2022-09-13T16:25:20;25.16;66.61
71523;HTU21D;59343;51.102;5.884;2022-09-13T16:27:46;25.12;66.62
71523;HTU21D;59343;51.102;5.884;2022-09-13T16:30:14;25.08;66.98
71523;HTU21D;59343;51.102;5.884;2022-09-13T16:32:41;25.04;67.15
71523;HTU21D;59343;51.102;5.884;2022-09-13T16:35:09;25.00;67.52
71523;HTU21D;59343;51.102;5.884;2022-09-13T16:37:36;24.95;67.59
71523;HTU21D;59343;51.102;5.884;2022-09-13T16:40:03;24.84;67.58
71523;HTU21D;59343;51.102;5.884;2022-09-13T16:42:29;24.76;68.07
71523;HTU21D;59343;51.102;5.884;2022-09-13T16:44:55;24.70;68.73
71523;HTU21D;59343;51.102;5.884;2022-09-13T16:47:21;24.62;69.47
71523;HTU21D;59343;51.102;5.884;2022-09-13T16:49:48;24.51;70.02
71523;HTU21D;59343;51.102;5.884;2022-09-13T16:52:14;24.38;70.39
71523;HTU21D;59343;51.102;5.884;2022-09-13T16:54:39;24.28;70.74
71523;HTU21D;59343;51.102;5.884;2022-09-13T16:57:07;24.19;71.05
71523;HTU21D;59343;51.102;5.884;2022-09-13T16:59:35;24.16;71.42
71523;HTU21D;59343;51.102;5.884;2022-09-13T17:02:01;24.11;71.85
71523;HTU21D;59343;51.102;5.884;2022-09-13T17:04:28;24.06;72.25
71523;HTU21D;59343;51.102;5.884;2022-09-13T17:06:54;24.03;72.49
71523;HTU21D;59343;51.102;5.884;2022-09-13T17:09:19;24.01;72.70
71523;HTU21D;59343;51.102;5.884;2022-09-13T17:11:48;23.97;72.60
71523;HTU21D;59343;51.102;5.884;2022-09-13T17:14:14;23.96;72.80
71523;HTU21D;59343;51.102;5.884;2022-09-13T17:16:48;23.97;72.80
71523;HTU21D;59343;51.102;5.884;2022-09-13T17:19:20;23.92;72.93
71523;HTU21D;59343;51.102;5.884;2022-09-13T17:21:47;23.87;72.98
71523;HTU21D;59343;51.102;5.884;2022-09-13T17:24:13;23.85;73.19
71523;HTU21D;59343;51.102;5.884;2022-09-13T17:26:40;23.79;73.70
71523;HTU21D;59343;51.102;5.884;2022-09-13T17:29:06;23.77;73.71
71523;HTU21D;59343;51.102;5.884;2022-09-13T17:31:31;23.74;73.93
71523;HTU21D;59343;51.102;5.884;2022-09-13T17:33:57;23.71;74.17
71523;HTU21D;59343;51.102;5.884;2022-09-13T17:36:23;23.68;74.63
71523;HTU21D;59343;51.102;5.884;2022-09-13T17:38:54;23.65;75.06
71523;HTU21D;59343;51.102;5.884;2022-09-13T17:41:23;23.59;75.09
71523;HTU21D;59343;51.102;5.884;2022-09-13T17:43:49;23.58;74.88
71523;HTU21D;59343;51.102;5.884;2022-09-13T17:46:18;23.59;74.85
71523;HTU21D;59343;51.102;5.884;2022-09-13T17:48:51;23.58;74.89
71523;HTU21D;59343;51.102;5.884;2022-09-13T17:51:20;23.57;75.01
71523;HTU21D;59343;51.102;5.884;2022-09-13T17:53:49;23.57;75.22
71523;HTU21D;59343;51.102;5.884;2022-09-13T17:56:26;23.59;75.15
71523;HTU21D;59343;51.102;5.884;2022-09-13T17:58:55;23.55;75.28
71523;HTU21D;59343;51.102;5.884;2022-09-13T18:01:21;23.54;75.40
71523;HTU21D;59343;51.102;5.884;2022-09-13T18:03:47;23.52;75.32
71523;HTU21D;59343;51.102;5.884;2022-09-13T18:06:13;23.49;75.51
71523;HTU21D;59343;51.102;5.884;2022-09-13T18:08:40;23.45;75.93
71523;HTU21D;59343;51.102;5.884;2022-09-13T18:11:08;23.39;76.18
71523;HTU21D;59343;51.102;5.884;2022-09-13T18:13:34;23.30;76.37
71523;HTU21D;59343;51.102;5.884;2022-09-13T18:16:08;23.24;76.57
71523;HTU21D;59343;51.102;5.884;2022-09-13T18:18:36;23.22;76.54
71523;HTU21D;59343;51.102;5.884;2022-09-13T18:21:03;23.15;76.63
71523;HTU21D;59343;51.102;5.884;2022-09-13T18:23:30;23.16;76.48
71523;HTU21D;59343;51.102;5.884;2022-09-13T18:26:06;23.13;76.70
71523;HTU21D;59343;51.102;5.884;2022-09-13T18:28:33;23.12;76.85
71523;HTU21D;59343;51.102;5.884;2022-09-13T18:31:02;23.14;76.76
71523;HTU21D;59343;51.102;5.884;2022-09-13T18:33:30;23.11;76.63
71523;HTU21D;59343;51.102;5.884;2022-09-13T18:36:05;23.11;76.75
71523;HTU21D;59343;51.102;5.884;2022-09-13T18:38:39;23.12;77.02
71523;HTU21D;59343;51.102;5.884;2022-09-13T18:41:20;23.10;77.25
71523;HTU21D;59343;51.102;5.884;2022-09-13T18:43:48;23.08;77.08
71523;HTU21D;59343;51.102;5.884;2022-09-13T18:46:20;23.03;77.03
71523;HTU21D;59343;51.102;5.884;2022-09-13T18:48:50;22.99;77.31
71523;HTU21D;59343;51.102;5.884;2022-09-13T18:51:21;22.96;77.69
71523;HTU21D;59343;51.102;5.884;2022-09-13T18:53:49;22.91;77.60
71523;HTU21D;59343;51.102;5.884;2022-09-13T18:56:18;22.86;77.75
71523;HTU21D;59343;51.102;5.884;2022-09-13T18:58:45;22.85;77.84
71523;HTU21D;59343;51.102;5.884;2022-09-13T19:01:13;22.79;77.81
71523;HTU21D;59343;51.102;5.884;2022-09-13T19:03:54;22.69;77.69
71523;HTU21D;59343;51.102;5.884;2022-09-13T19:06:23;22.63;77.61
71523;HTU21D;59343;51.102;5.884;2022-09-13T19:08:51;22.58;77.74
71523;HTU21D;59343;51.102;5.884;2022-09-13T19:11:20;22.54;77.73
71523;HTU21D;59343;51.102;5.884;2022-09-13T19:13:47;22.50;78.05
71523;HTU21D;59343;51.102;5.884;2022-09-13T19:16:16;22.46;78.03
71523;HTU21D;59343;51.102;5.884;2022-09-13T19:18:45;22.39;77.95
71523;HTU21D;59343;51.102;5.884;2022-09-13T19:21:16;22.36;78.08
71523;HTU21D;59343;51.102;5.884;2022-09-13T19:23:44;22.34;78.28